Flight Track Log - Related Links

Times and Time Zones

All times are in EDT time to prevent confusion due to time zone crossing. See the N7229X flight status page for this flight to view local times or setup timezone preferences in your user account.

Time Position Orientation Groundspeed Altitude Reporting Facility
EDT Latitude Longitude Course Direction KTS MPH feet Rate Location/Type
Fri 07:44:07 PM 40.7908 -111.9761 293° West 82 94 4,700  Level Salt Lake Center
Fri 07:45:26 PM 40.8022 -112.0119 293° West 99 114 5,900 836 Climbing Salt Lake Center
Fri 07:46:09 PM 40.8042 -112.0336 277° West 100 115 6,400 716 Climbing Salt Lake Center
Fri 07:46:33 PM 40.8056 -112.0506 276° West 95 109 6,700 885 Climbing Salt Lake Center
Fri 07:47:10 PM 40.8053 -112.0689 269° West 97 112 7,300 900 Climbing Salt Lake Center
Fri 07:47:33 PM 40.8078 -112.0839 282° West 91 105 7,600 677 Climbing Salt Lake Center
Fri 07:48:12 PM 40.8078 -112.0992 270° West 86 99 8,000 764 Climbing Salt Lake Center
Fri 07:48:28 PM 40.8089 -112.1117 277° West 88 101 8,300 677 Climbing Salt Lake Center
Fri 07:49:14 PM 40.8047 -112.1314 254° West 89 102 8,700 627 Climbing Salt Lake Center
Fri 07:49:35 PM 40.8008 -112.1483 253° West 86 99 9,000 677 Climbing Salt Lake Center
Fri 07:50:16 PM 40.7975 -112.1608 251° West 86 99 9,400 588 Climbing Salt Lake Center
Fri 07:51:17 PM 40.7894 -112.1883 249° West 83 96 10,000 634 Climbing Salt Lake Center
Fri 07:52:19 PM 40.7644 -112.1506 131° Southeast 112 129 10,700 629 Climbing Salt Lake Center
Fri 07:53:21 PM 40.7486 -112.1200 124° Southeast 103 119 11,300 532 Climbing Salt Lake Center
Fri 07:54:23 PM 40.7261 -112.1078 158° South 91 105 11,800 341 Climbing Salt Lake Center
Fri 07:55:24 PM 40.6994 -112.1000 168° South 99 114 12,000 98 Climbing Salt Lake Center
Fri 07:56:26 PM 40.6628 -112.0931 172° South 132 152 12,000  Level Salt Lake Center
Fri 07:57:28 PM 40.6203 -112.0839 171° South 153 176 12,000  Level Salt Lake Center
Fri 07:58:29 PM 40.5675 -112.0733 171° South 161 185 12,000  Level Salt Lake Center
Fri 07:59:31 PM 40.5225 -112.0642 171° South 164 189 12,000  Level Salt Lake Center
Fri 08:00:33 PM 40.4783 -112.0558 172° South 161 185 12,000  Level Salt Lake Center
Fri 08:01:38 PM 40.4261 -112.0489 174° South 162 186 12,000 49 Level Salt Lake Center
Fri 08:02:36 PM 40.3903 -112.0356 164° South 160 184 12,100  Climbing Salt Lake Center
Fri 08:03:38 PM 40.3464 -112.0264 171° South 160 184 12,000 -49 Descending Salt Lake Center
Fri 08:04:39 PM 40.3028 -112.0164 170° South 160 184 12,000  Level Salt Lake Center
Fri 08:05:41 PM 40.2503 -112.0039 170° South 160 184 12,000  Level Salt Lake Center
Fri 08:06:43 PM 40.2047 -111.9936 170° South 166 191 12,000  Level Salt Lake Center
Fri 08:07:44 PM 40.1608 -112.0081 194° South 162 186 12,000  Level Salt Lake Center
Fri 08:08:46 PM 40.1203 -112.0328 205° Southwest 160 184 12,000  Level Salt Lake Center
Fri 08:09:48 PM 40.0786 -112.0544 202° Southwest 162 186 12,000  Level Salt Lake Center
Fri 08:10:49 PM 40.0353 -112.0800 204° Southwest 170 196 12,000  Level Salt Lake Center
Fri 08:11:51 PM 39.9933 -112.1053 205° Southwest 167 192 12,000  Level Salt Lake Center
Fri 08:12:53 PM 39.9397 -112.1372 205° Southwest 177 204 12,000  Level Salt Lake Center
Fri 08:13:54 PM 39.8900 -112.1653 203° Southwest 192 221 12,000  Level Salt Lake Center
Fri 08:14:56 PM 39.8453 -112.1950 207° Southwest 180 207 12,000  Level Salt Lake Center
Fri 08:15:58 PM 39.8019 -112.2208 205° Southwest 174 200 12,000  Level Salt Lake Center
Fri 08:17:00 PM 39.7569 -112.2464 204° Southwest 175 201 12,000  Level Salt Lake Center
Fri 08:18:01 PM 39.7142 -112.2711 204° Southwest 173 199 12,000  Level Salt Lake Center
Fri 08:19:03 PM 39.6711 -112.2956 204° Southwest 170 196 12,000  Level Salt Lake Center
Fri 08:20:05 PM 39.6164 -112.3250 203° Southwest 173 199 12,000  Level Salt Lake Center
Fri 08:21:07 PM 39.5719 -112.3508 204° Southwest 174 200 12,000  Level Salt Lake Center
Fri 08:22:08 PM 39.5269 -112.3772 204° Southwest 176 203 12,000  Level Salt Lake Center
Fri 08:23:10 PM 39.4825 -112.4033 204° Southwest 176 203 12,000  Level Salt Lake Center
Fri 08:24:12 PM 39.4372 -112.4281 203° Southwest 176 203 12,000  Level Salt Lake Center
Fri 08:25:13 PM 39.3936 -112.4522 203° Southwest 174 200 12,000  Level Salt Lake Center
Fri 08:26:15 PM 39.3486 -112.4742 201° Southwest 173 199 12,000  Level Salt Lake Center
Fri 08:27:17 PM 39.2975 -112.5036 204° Southwest 170 196 12,000  Level Salt Lake Center
Fri 08:28:19 PM 39.2481 -112.5100 186° South 173 199 12,000  Level Salt Lake Center
Fri 08:29:21 PM 39.2036 -112.5158 186° South 175 201 12,000  Level Salt Lake Center
Fri 08:30:22 PM 39.1558 -112.5258 189° South 174 200 12,000  Level Salt Lake Center
Fri 08:31:24 PM 39.0994 -112.5331 186° South 171 197 12,000  Level Salt Lake Center
Fri 08:32:26 PM 39.0514 -112.5400 186° South 173 199 12,000  Level Salt Lake Center
Fri 08:33:27 PM 39.0017 -112.5478 187° South 176 203 12,000  Level Salt Lake Center
Fri 08:34:29 PM 38.9533 -112.5556 187° South 177 204 12,000  Level Salt Lake Center
Fri 08:35:31 PM 38.9047 -112.5606 185° South 176 203 12,000  Level Salt Lake Center
Fri 08:36:33 PM 38.8567 -112.5656 185° South 175 201 12,000  Level Salt Lake Center
Fri 08:37:35 PM 38.8094 -112.5714 185° South 173 199 12,000  Level Salt Lake Center
Fri 08:38:36 PM 38.7536 -112.5800 187° South 170 196 12,000  Level Salt Lake Center
Fri 08:39:38 PM 38.7072 -112.5861 186° South 169 194 12,000  Level Salt Lake Center
Fri 08:40:40 PM 38.6614 -112.5917 185° South 167 192 12,000  Level Salt Lake Center
Fri 08:41:42 PM 38.6133 -112.5975 185° South 170 196 12,000  Level Salt Lake Center
Fri 08:42:43 PM 38.5653 -112.6047 187° South 172 198 12,000  Level Salt Lake Center
Fri 08:43:45 PM 38.5183 -112.6125 187° South 171 197 12,000  Level Salt Lake Center
Fri 08:44:47 PM 38.4725 -112.6178 185° South 168 193 12,000  Level Salt Lake Center
Fri 08:45:48 PM 38.4169 -112.6239 185° South 168 193 12,000  Level Salt Lake Center
Fri 08:46:50 PM 38.3714 -112.6303 186° South 166 191 12,000  Level Salt Lake Center
Fri 08:47:52 PM 38.3267 -112.6353 185° South 164 189 12,000  Level Salt Lake Center
Fri 08:48:53 PM 38.2878 -112.6256 169° South 163 188 12,000  Level Salt Lake Center
Fri 08:50:00 PM 38.2444 -112.5941 150° Southeast  Level FlightAware Approximate
Fri 08:52:36 PM 38.1228 -112.5247 158° South 180 207 12,000  Level Los Angeles Center
Fri 08:53:38 PM 38.0672 -112.4964 158° South 179 206 12,000  Level Los Angeles Center
Fri 08:54:40 PM 38.0222 -112.4725 157° South 177 204 12,000  Level Los Angeles Center
Fri 08:55:42 PM 37.9781 -112.4494 158° South 175 201 12,000  Level Los Angeles Center
Fri 08:56:41 PM 37.9333 -112.4267 158° South 173 199 12,000  Level Salt Lake Center
Fri 08:57:00 PM 37.9575 -112.4370 158° South  Level FlightAware Approximate
Fri 08:57:42 PM 37.8875 -112.4036 158° South 174 200 12,000  Level Salt Lake Center
Fri 08:58:44 PM 37.8417 -112.3789 157° South 176 203 12,000  Level Salt Lake Center
Fri 08:59:45 PM 37.7942 -112.3561 159° South 179 206 12,000  Level Salt Lake Center
Fri 09:00:47 PM 37.7478 -112.3319 158° South 180 207 12,000 -49 Level Salt Lake Center
Fri 09:01:48 PM 37.7008 -112.3069 157° South 181 208 11,900 -49 Descending Salt Lake Center
Fri 09:02:50 PM 37.6494 -112.2917 167° South 184 212 11,900 -49 Level Salt Lake Center
Fri 09:03:51 PM 37.5875 -112.2892 178° South 185 213 11,800 -49 Descending Salt Lake Center
Fri 09:04:53 PM 37.5350 -112.2881 179° South 186 214 11,800  Level Salt Lake Center
Fri 09:05:55 PM 37.4839 -112.2819 175° South 186 214 11,800  Level Salt Lake Center
Fri 09:06:56 PM 37.4367 -112.2783 177° South 179 206 11,800  Level Salt Lake Center
Fri 09:07:58 PM 37.3911 -112.2750 177° South 172 198 11,800  Level Salt Lake Center
Fri 09:08:59 PM 37.3439 -112.2697 175° South 169 194 11,800  Level Salt Lake Center
Fri 09:10:01 PM 37.2964 -112.2642 175° South 170 196 11,800  Level Salt Lake Center
Fri 09:11:02 PM 37.2500 -112.2592 175° South 169 194 11,800  Level Salt Lake Center
Fri 09:12:04 PM 37.2028 -112.2519 173° South 169 194 11,800  Level Salt Lake Center
Fri 09:13:05 PM 37.1450 -112.2478 177° South 171 197 11,800  Level Salt Lake Center
Fri 09:14:07 PM 37.0983 -112.2450 177° South 170 196 11,800  Level Salt Lake Center
Fri 09:15:21 PM 37.0411 -112.2403 176° South 170 196 11,800  Level Los Angeles Center
Fri 09:16:23 PM 36.9922 -112.2347 175° South 173 199 11,800  Level Los Angeles Center
Fri 09:17:25 PM 36.9439 -112.2306 176° South 174 200 11,800  Level Los Angeles Center
Fri 09:18:27 PM 36.8928 -112.2275 177° South 178 205 11,800  Level Los Angeles Center
Fri 09:19:29 PM 36.8350 -112.2217 175° South 175 201 11,800  Level Los Angeles Center
Fri 09:20:31 PM 36.7894 -112.2186 177° South 167 192 11,800  Level Los Angeles Center
Fri 09:21:32 PM 36.7511 -112.2119 172° South 170 196 11,800  Level Los Angeles Center
Fri 09:22:34 PM 36.6953 -112.2069 176° South 168 193 11,800  Level Los Angeles Center
Fri 09:23:36 PM 36.6492 -112.2031 176° South 167 192 11,800  Level Los Angeles Center
Fri 09:24:38 PM 36.6011 -112.1986 176° South 169 194 11,800  Level Los Angeles Center
Fri 09:25:40 PM 36.5533 -112.1903 172° South 172 198 11,800  Level Los Angeles Center
Fri 09:26:42 PM 36.4964 -112.1675 162° South 176 203 11,800 48 Level Los Angeles Center
Fri 09:27:44 PM 36.4503 -112.1503 163° South 175 201 11,900 48 Climbing Los Angeles Center
Fri 09:28:46 PM 36.4031 -112.1364 167° South 174 200 11,900  Level Los Angeles Center
Fri 09:29:47 PM 36.3542 -112.1267 171° South 176 203 11,900  Level Los Angeles Center
Fri 09:31:01 PM 36.3086 -112.1331 186° South 168 193 11,900  Level Los Angeles Center
Fri 09:32:03 PM 36.2525 -112.1506 194° South 171 197 11,900  Level Los Angeles Center
Fri 09:33:05 PM 36.1981 -112.1658 193° South 173 199 11,900  Level Los Angeles Center
Fri 09:34:07 PM 36.1514 -112.1794 193° South 174 200 11,900  Level Los Angeles Center
Fri 09:35:08 PM 36.1067 -112.1942 195° South 170 196 11,900  Level Los Angeles Center
Fri 09:36:10 PM 36.0622 -112.2125 198° South 170 196 11,900  Level Los Angeles Center
Fri 09:37:12 PM 36.0281 -112.2244 196° South 165 190 11,900  Level Los Angeles Center
Fri 09:38:14 PM 35.9789 -112.2503 203° Southwest 161 185 11,900  Level Los Angeles Center
Fri 09:39:15 PM 35.9358 -112.2700 200° South 166 191 11,900 -195 Level Los Angeles Center
Fri 09:40:17 PM 35.8828 -112.2942 200° South 169 194 11,500 -242 Descending Los Angeles Center
Fri 09:41:19 PM 35.8339 -112.2917 178° South 174 200 11,400 -48 Descending Los Angeles Center
Fri 09:42:21 PM 35.7864 -112.2814 170° South 174 200 11,400  Level Los Angeles Center
Fri 09:43:22 PM 35.7392 -112.2750 174° South 172 198 11,400  Level Los Angeles Center
Fri 09:44:24 PM 35.6933 -112.2717 177° South 168 193 11,400  Level Los Angeles Center
Fri 09:45:26 PM 35.6372 -112.2681 177° South 169 194 11,400  Level Los Angeles Center
Fri 09:46:18 PM 35.5997 -112.2636 174° South 168 193 11,400 53 Level Albuquerque Center
Fri 09:47:19 PM 35.5539 -112.2589 175° South 167 192 11,500 98 Climbing Albuquerque Center
Fri 09:48:20 PM 35.5067 -112.2536 175° South 169 194 11,600  Climbing Albuquerque Center
Fri 09:49:22 PM 35.4611 -112.2492 175° South 166 191 11,500 -49 Descending Albuquerque Center
Fri 09:50:23 PM 35.4142 -112.2436 174° South 169 194 11,500  Level Albuquerque Center
Fri 09:51:24 PM 35.3567 -112.2392 176° South 172 198 11,500  Level Albuquerque Center
Fri 09:52:26 PM 35.3089 -112.2347 176° South 172 198 11,500  Level Albuquerque Center
Fri 09:53:27 PM 35.2617 -112.2306 176° South 172 198 11,500  Level Albuquerque Center
Fri 09:54:29 PM 35.2136 -112.2261 176° South 173 199 11,500  Level Albuquerque Center
Fri 09:55:30 PM 35.1669 -112.2233 177° South 170 196 11,500  Level Albuquerque Center
Fri 09:56:31 PM 35.1194 -112.2172 174° South 171 197 11,500  Level Albuquerque Center
Fri 09:57:33 PM 35.0731 -112.2133 176° South 169 194 11,500  Level Albuquerque Center
Fri 09:58:34 PM 35.0281 -112.2097 176° South 165 190 11,500 49 Level Albuquerque Center
Fri 09:59:35 PM 34.9817 -112.2036 174° South 167 192 11,600  Climbing Albuquerque Center
Fri 10:00:37 PM 34.9250 -112.1997 177° South 169 194 11,500 -49 Descending Albuquerque Center
Fri 10:01:38 PM 34.8778 -112.1961 176° South 170 196 11,500  Level Albuquerque Center
Fri 10:02:39 PM 34.8306 -112.1911 175° South 171 197 11,500  Level Albuquerque Center
Fri 10:03:41 PM 34.7828 -112.1867 176° South 173 199 11,500  Level Albuquerque Center
Fri 10:04:42 PM 34.7339 -112.1800 174° South 175 201 11,500 -195 Level Albuquerque Center
Fri 10:05:44 PM 34.6844 -112.1742 174° South 177 204 11,100 -585 Descending Albuquerque Center
Fri 10:06:45 PM 34.6306 -112.1686 175° South 184 212 10,300 -738 Descending Albuquerque Center
Fri 10:07:46 PM 34.5653 -112.1639 177° South 192 221 9,600 -393 Descending Albuquerque Center
Fri 10:08:47 PM 34.5128 -112.1594 176° South 192 221 9,500 -146 Descending Albuquerque Center
Fri 10:09:49 PM 34.4644 -112.1542 175° South 185 213 9,300 -98 Descending Albuquerque Center
Fri 10:10:50 PM 34.4175 -112.1506 176° South 176 203 9,300 -295 Level Albuquerque Center
Fri 10:11:51 PM 34.3664 -112.1461 176° South 179 206 8,700 -732 Descending Albuquerque Center
Fri 10:12:53 PM 34.3092 -112.1389 174° South 194 223 7,800 -585 Descending Albuquerque Center
Fri 10:13:54 PM 34.2556 -112.1344 176° South 194 223 7,500 -148 Descending Albuquerque Center
Fri 10:14:55 PM 34.2067 -112.1292 175° South 180 207 7,500  Level Albuquerque Center
Fri 10:15:57 PM 34.1575 -112.1247 176° South 177 204 7,500 -341 Level Albuquerque Center
Fri 10:16:58 PM 34.0969 -112.1186 175° South 185 213 6,800 -780 Descending Albuquerque Center
Fri 10:18:00 PM 34.0422 -112.1136 176° South 197 227 5,900 -488 Descending Albuquerque Center
Fri 10:19:01 PM 33.9889 -112.1083 175° South 196 226 5,800 -98 Descending Albuquerque Center

Login

Don't have an account? Register now (free) for customized features, flight alerts, and more!